createdAt,value
2022-11-24T00:01:25.834Z,98043.13
2022-11-24T00:03:57.371Z,98070.09
2022-11-24T00:06:26.174Z,98056.91
2022-11-24T00:08:54.925Z,98048.97
2022-11-24T00:11:25.707Z,98042.56
2022-11-24T00:13:53.871Z,98049.16
2022-11-24T00:16:26.036Z,98041.78
2022-11-24T00:18:56.631Z,98045.84
2022-11-24T00:21:25.276Z,98039.00
2022-11-24T00:23:53.450Z,98046.66
2022-11-24T00:26:26.239Z,98039.47
2022-11-24T00:28:56.604Z,98037.56
2022-11-24T00:31:25.555Z,98042.56
2022-11-24T00:33:55.410Z,98025.50
2022-11-24T00:36:25.425Z,98029.59
2022-11-24T00:39:01.735Z,98024.13
2022-11-24T00:41:29.923Z,98029.44
2022-11-24T00:43:57.777Z,98025.72
2022-11-24T00:46:26.306Z,98021.44
2022-11-24T00:48:54.202Z,97987.44
2022-11-24T00:51:25.225Z,98017.69
2022-11-24T00:53:53.441Z,98008.41
2022-11-24T00:56:20.879Z,98019.78
2022-11-24T00:58:48.312Z,98006.75
2022-11-24T01:01:22.039Z,98020.47
2022-11-24T01:03:50.305Z,97999.38
2022-11-24T01:06:20.818Z,97989.28
2022-11-24T01:08:48.851Z,97990.31
2022-11-24T01:11:20.307Z,97992.72
2022-11-24T01:13:50.325Z,98003.97
2022-11-24T01:16:26.921Z,97994.91
2022-11-24T01:18:55.974Z,97988.78
2022-11-24T01:21:24.149Z,97980.00
2022-11-24T01:23:51.695Z,97981.72
2022-11-24T01:26:21.631Z,98001.25
2022-11-24T01:28:56.969Z,97975.00
2022-11-24T01:31:29.692Z,97967.50
2022-11-24T01:34:00.217Z,97987.06
2022-11-24T01:36:42.195Z,97971.72
2022-11-24T01:39:20.855Z,97959.28
2022-11-24T01:41:53.087Z,97979.22
2022-11-24T01:47:30.107Z,97969.75
2022-11-24T01:50:02.629Z,97974.28
2022-11-24T01:52:53.981Z,97973.09
2022-11-24T01:55:28.017Z,97982.38
2022-11-24T01:58:10.908Z,97963.88
2022-11-24T02:00:41.653Z,97970.00
2022-11-24T02:03:20.897Z,97973.97
2022-11-24T02:06:12.162Z,97972.44
2022-11-24T02:09:20.285Z,97933.00
2022-11-24T02:11:48.251Z,97971.56
2022-11-24T02:14:18.491Z,97955.78
2022-11-24T02:16:50.005Z,97964.44
2022-11-24T02:19:31.196Z,97977.97
2022-11-24T02:21:58.880Z,97969.41
2022-11-24T02:24:47.603Z,97966.25
2022-11-24T02:27:15.009Z,97984.84
2022-11-24T02:29:42.982Z,97949.69
2022-11-24T02:32:11.954Z,97978.59
2022-11-24T02:34:39.457Z,97945.34
2022-11-24T02:37:06.758Z,97964.00
2022-11-24T02:39:34.576Z,97963.84
2022-11-24T02:42:10.542Z,97938.69
2022-11-24T02:44:46.374Z,97955.81
2022-11-24T02:47:14.215Z,97935.22
2022-11-24T02:49:44.026Z,97945.13
2022-11-24T02:52:18.380Z,97951.41
2022-11-24T02:54:58.358Z,97930.28
2022-11-24T02:57:28.858Z,97941.72
2022-11-24T02:59:56.907Z,97936.84
2022-11-24T03:02:24.437Z,97956.28
2022-11-24T03:04:51.966Z,97938.69
2022-11-24T03:07:19.814Z,97928.00
2022-11-24T03:09:47.406Z,97939.25
2022-11-24T03:12:15.341Z,97926.97
2022-11-24T03:14:43.078Z,97930.72
2022-11-24T03:17:10.603Z,97919.66
2022-11-24T03:19:38.438Z,97922.88
2022-11-24T03:22:06.071Z,97929.47
2022-11-24T03:24:34.182Z,97920.69
2022-11-24T03:27:02.111Z,97929.25
2022-11-24T03:29:30.331Z,97930.28
2022-11-24T03:31:58.925Z,97927.56
2022-11-24T03:34:26.569Z,97943.44
2022-11-24T03:36:54.010Z,97927.09
2022-11-24T03:39:21.582Z,97917.44
2022-11-24T03:41:51.642Z,97929.72
2022-11-24T03:44:18.996Z,97924.91
2022-11-24T03:46:46.497Z,97949.94
2022-11-24T03:49:13.952Z,97939.06
2022-11-24T03:51:41.344Z,97911.88
2022-11-24T03:54:08.896Z,97930.31
2022-11-24T03:56:36.325Z,97910.16
2022-11-24T03:59:03.924Z,97927.41
2022-11-24T04:01:31.384Z,97914.69
2022-11-24T04:03:58.832Z,97924.34
2022-11-24T04:06:26.339Z,97918.19
2022-11-24T04:08:53.805Z,97926.38
2022-11-24T04:11:39.847Z,97902.00
2022-11-24T04:14:13.200Z,97902.19
2022-11-24T04:16:41.594Z,97916.59
2022-11-24T04:19:08.925Z,97898.28
2022-11-24T04:21:36.330Z,97902.97
2022-11-24T04:24:04.055Z,97904.81
2022-11-24T04:26:31.552Z,97905.69
2022-11-24T04:28:59.075Z,97899.41
2022-11-24T04:31:26.501Z,97917.97
2022-11-24T04:33:54.047Z,97902.81
2022-11-24T04:36:21.497Z,97903.47
2022-11-24T04:39:23.680Z,97912.44
2022-11-24T04:41:36.309Z,97894.09
2022-11-24T04:44:03.892Z,97903.84
2022-11-24T04:46:31.700Z,97920.00
2022-11-24T04:48:59.402Z,97926.25
2022-11-24T04:51:26.827Z,97911.59
2022-11-24T04:53:54.265Z,97912.41
2022-11-24T04:56:21.725Z,97935.47
2022-11-24T04:58:49.990Z,97929.81
2022-11-24T05:01:17.438Z,97919.81
2022-11-24T05:03:45.049Z,97926.94
2022-11-24T05:06:12.426Z,97913.38
2022-11-24T05:08:39.735Z,97935.13
2022-11-24T05:11:08.058Z,97913.13
2022-11-24T05:13:35.606Z,97929.97
2022-11-24T05:16:03.325Z,97940.69
2022-11-24T05:18:30.758Z,97920.03
2022-11-24T05:20:58.719Z,97906.88
2022-11-24T05:23:26.575Z,97934.72
2022-11-24T05:25:54.247Z,97912.53
2022-11-24T05:28:21.660Z,97920.38
2022-11-24T05:30:49.048Z,97921.63
2022-11-24T05:33:19.380Z,97924.84
2022-11-24T05:35:47.291Z,97926.78
2022-11-24T05:38:14.799Z,97920.41
2022-11-24T05:40:43.171Z,97928.38
2022-11-24T05:43:17.639Z,97910.44
2022-11-24T05:45:45.411Z,97930.91
2022-11-24T05:48:15.720Z,97923.88
2022-11-24T05:50:46.318Z,97910.84
2022-11-24T05:53:14.117Z,97933.00
2022-11-24T05:55:41.492Z,97909.09
2022-11-24T05:58:10.405Z,97897.00
2022-11-24T06:00:38.160Z,97913.94
2022-11-24T06:03:06.230Z,97907.34
2022-11-24T06:05:33.841Z,97908.06
2022-11-24T06:08:01.347Z,97891.97
2022-11-24T06:10:29.007Z,97911.38
2022-11-24T06:12:56.475Z,97904.66
2022-11-24T06:15:24.301Z,97912.59
2022-11-24T06:17:56.534Z,97897.22
2022-11-24T06:20:29.702Z,97914.50
2022-11-24T06:22:59.495Z,97897.63
2022-11-24T06:25:27.258Z,97903.97
2022-11-24T06:27:55.228Z,97907.47
2022-11-24T06:30:22.586Z,97893.16
2022-11-24T06:32:54.383Z,97900.06
2022-11-24T06:35:22.255Z,97897.94
2022-11-24T06:37:49.807Z,97900.63
2022-11-24T06:40:17.426Z,97908.00
2022-11-24T06:42:50.935Z,97898.22
2022-11-24T06:45:18.463Z,97904.28
2022-11-24T06:47:45.844Z,97903.78
2022-11-24T06:50:13.255Z,97908.78
2022-11-24T06:52:40.621Z,97914.88
2022-11-24T06:55:08.531Z,97909.97
2022-11-24T06:57:36.054Z,97905.03
2022-11-24T07:00:06.016Z,97898.34
2022-11-24T07:02:33.597Z,97916.38
2022-11-24T07:05:01.101Z,97909.13
2022-11-24T07:07:30.945Z,97898.81
2022-11-24T07:09:58.647Z,97899.06
2022-11-24T07:12:34.717Z,97893.13
2022-11-24T07:15:02.735Z,97844.97
2022-11-24T07:17:51.291Z,97886.69
2022-11-24T07:20:18.864Z,97897.25
2022-11-24T07:22:46.524Z,97903.03
2022-11-24T07:25:14.882Z,97912.41
2022-11-24T07:27:42.304Z,97892.16
2022-11-24T07:30:10.032Z,97908.03
2022-11-24T07:32:37.559Z,97905.16
2022-11-24T07:35:05.442Z,97907.47
2022-11-24T07:37:32.823Z,97907.31
2022-11-24T07:40:00.296Z,97917.31
2022-11-24T07:42:28.177Z,97908.34
2022-11-24T07:44:55.575Z,97902.63
2022-11-24T07:47:22.927Z,97896.28
2022-11-24T07:49:50.373Z,97906.84
2022-11-24T07:52:17.825Z,97887.47
2022-11-24T07:54:45.213Z,97894.25
2022-11-24T07:57:12.555Z,97892.81
2022-11-24T07:59:39.908Z,97891.38
2022-11-24T08:02:07.692Z,97893.50
2022-11-24T08:04:37.286Z,97898.59
2022-11-24T08:07:04.672Z,97860.63
2022-11-24T08:09:32.057Z,97894.50
2022-11-24T08:11:59.458Z,97886.66
2022-11-24T08:14:26.805Z,97885.69
2022-11-24T08:16:54.210Z,97887.88
2022-11-24T08:19:22.732Z,97884.28
2022-11-24T08:21:52.699Z,97889.47
2022-11-24T08:24:20.170Z,97889.03
2022-11-24T08:26:47.683Z,97888.28
2022-11-24T08:29:15.253Z,97887.53
2022-11-24T08:31:42.684Z,97886.50
2022-11-24T08:34:10.992Z,97879.13
2022-11-24T08:36:38.563Z,97881.78
2022-11-24T08:39:05.942Z,97875.50
2022-11-24T08:41:33.628Z,97875.34
2022-11-24T08:44:01.017Z,97873.53
2022-11-24T08:46:28.503Z,97875.19
2022-11-24T08:48:56.223Z,97880.00
2022-11-24T08:51:26.312Z,97876.41
2022-11-24T08:54:02.227Z,97874.41
2022-11-24T08:56:32.185Z,97861.28
2022-11-24T08:59:00.515Z,97867.09
2022-11-24T09:01:29.373Z,97869.22
2022-11-24T09:03:57.193Z,97858.97
2022-11-24T09:06:27.340Z,97857.97
2022-11-24T09:08:55.937Z,97866.63
2022-11-24T09:11:24.094Z,97857.22
2022-11-24T09:13:52.008Z,97864.00
2022-11-24T09:16:26.204Z,97847.44
2022-11-24T09:19:05.391Z,97865.13
2022-11-24T09:21:37.909Z,97864.63
2022-11-24T09:24:07.616Z,97849.16
2022-11-24T09:26:37.235Z,97853.63
2022-11-24T09:29:08.197Z,97861.03
2022-11-24T09:31:37.057Z,97852.88
2022-11-24T09:34:07.257Z,97859.69
2022-11-24T09:36:35.205Z,97872.06
2022-11-24T09:39:03.316Z,97855.22
2022-11-24T09:41:50.959Z,97852.09
2022-11-24T09:44:52.537Z,97847.41
2022-11-24T09:47:52.264Z,97841.59
2022-11-24T09:50:25.989Z,97838.16
2022-11-24T09:53:09.214Z,97842.06
2022-11-24T09:55:56.494Z,97855.56
2022-11-24T09:58:44.480Z,97845.53
2022-11-24T10:01:26.479Z,97854.75
2022-11-24T10:03:54.756Z,97855.53
2022-11-24T10:06:24.176Z,97843.97
2022-11-24T10:09:26.495Z,97835.00
2022-11-24T10:12:03.598Z,97852.97
2022-11-24T10:14:54.220Z,97848.75
2022-11-24T10:17:36.689Z,97845.06
2022-11-24T10:20:31.647Z,97849.28
2022-11-24T10:23:28.244Z,97845.34
2022-11-24T10:26:00.324Z,97849.03
2022-11-24T10:28:39.223Z,97844.28
2022-11-24T10:31:34.507Z,97848.03
2022-11-24T10:34:10.704Z,97849.31
2022-11-24T10:36:47.617Z,97834.88
2022-11-24T10:39:29.742Z,97842.25
2022-11-24T10:42:13.029Z,97843.28
2022-11-24T10:44:41.601Z,97837.25
2022-11-24T10:47:23.097Z,97828.31
2022-11-24T10:49:59.024Z,97839.88
2022-11-24T10:52:29.099Z,97837.22
2022-11-24T10:54:59.396Z,97841.69
2022-11-24T10:57:38.726Z,97844.84
2022-11-24T11:00:21.631Z,97832.25
2022-11-24T11:02:51.227Z,97830.38
2022-11-24T11:05:42.211Z,97834.38
2022-11-24T11:08:22.243Z,97835.69
2022-11-24T11:11:12.544Z,97832.53
2022-11-24T11:14:13.326Z,97831.72
2022-11-24T11:16:55.909Z,97832.03
2022-11-24T11:19:58.488Z,97829.38
2022-11-24T11:22:32.439Z,97827.81
2022-11-24T11:25:15.051Z,97828.34
2022-11-24T11:27:42.969Z,97825.19
2022-11-24T11:35:52.885Z,97822.31
2022-11-24T11:38:21.088Z,97825.22
2022-11-24T11:40:51.744Z,97828.09
2022-11-24T11:43:41.350Z,97819.69
2022-11-24T11:46:18.311Z,97831.00
2022-11-24T11:48:47.196Z,97837.06
2022-11-24T11:51:26.958Z,97811.81
2022-11-24T11:54:19.586Z,97841.28
2022-11-24T11:56:50.431Z,97835.53
2022-11-24T11:59:36.721Z,97843.41
2022-11-24T12:02:13.048Z,97835.00
2022-11-24T12:04:57.230Z,97845.81
2022-11-24T12:07:33.627Z,97847.63
2022-11-24T12:10:04.157Z,97841.31
2022-11-24T12:12:56.879Z,97838.16
2022-11-24T12:15:45.229Z,97848.16
2022-11-24T12:21:55.389Z,97838.16
2022-11-24T12:24:34.895Z,97842.88
2022-11-24T12:27:28.851Z,97829.22
2022-11-24T12:30:03.975Z,97843.94
2022-11-24T12:32:44.221Z,97847.38
2022-11-24T12:35:41.886Z,97847.38
2022-11-24T12:38:19.587Z,97850.53
2022-11-24T12:41:41.591Z,97849.72
2022-11-24T12:44:41.403Z,97854.75
2022-11-24T12:47:18.190Z,97857.38
2022-11-24T12:50:06.927Z,97860.53
2022-11-24T12:52:42.809Z,97850.00
2022-11-24T12:55:20.146Z,97859.47
2022-11-24T12:58:11.281Z,97866.34
2022-11-24T13:00:44.504Z,97859.47
2022-11-24T13:03:24.459Z,97866.06
2022-11-24T13:06:04.246Z,97864.72
2022-11-24T13:08:32.086Z,97867.88
2022-11-24T13:11:21.248Z,97872.59
2022-11-24T13:14:00.472Z,97853.34
2022-11-24T13:16:36.150Z,97867.31
2022-11-24T13:19:15.404Z,97872.03
2022-11-24T13:21:50.520Z,97876.53
2022-11-24T13:24:19.110Z,97873.88
2022-11-24T13:27:18.193Z,97868.13
2022-11-24T13:29:47.539Z,97866.56
2022-11-24T13:32:14.888Z,97864.72
2022-11-24T13:34:42.173Z,97867.88
2022-11-24T13:37:39.804Z,97866.84
2022-11-24T13:40:13.567Z,97868.41
2022-11-24T13:42:56.575Z,97864.47
2022-11-24T13:45:39.130Z,97865.00
2022-11-24T13:48:24.526Z,97867.63
2022-11-24T13:50:52.387Z,97860.25
2022-11-24T13:53:30.767Z,97862.91
2022-11-24T13:56:20.411Z,97875.53
2022-11-24T13:59:17.357Z,97871.31
2022-11-24T14:01:47.066Z,97870.53
2022-11-24T14:04:34.210Z,97870.53
2022-11-24T14:07:09.049Z,97874.22
2022-11-24T14:09:45.182Z,97870.28
2022-11-24T14:12:25.497Z,97878.97
2022-11-24T14:14:57.674Z,97875.75
2022-11-24T14:17:28.862Z,97873.66
2022-11-24T14:19:58.288Z,97881.56
2022-11-24T14:22:35.427Z,97885.75
2022-11-24T14:25:03.824Z,97884.97
2022-11-24T14:27:34.567Z,97890.50
2022-11-24T14:30:08.067Z,97887.34
2022-11-24T14:32:35.599Z,97888.38
2022-11-24T14:35:15.726Z,97887.63
2022-11-24T14:37:43.268Z,97894.97
2022-11-24T14:41:09.429Z,97900.50
2022-11-24T14:43:37.017Z,97901.28
2022-11-24T14:46:09.564Z,97901.56
2022-11-24T14:48:47.157Z,97904.97
2022-11-24T14:51:35.633Z,97903.16
2022-11-24T14:54:14.094Z,97905.53
2022-11-24T14:56:42.383Z,97909.97
2022-11-24T14:59:25.187Z,97921.56
2022-11-24T15:01:52.769Z,97923.72
2022-11-24T15:05:00.906Z,97929.22
2022-11-24T15:07:19.516Z,97915.31
2022-11-24T15:09:53.415Z,97912.44
2022-11-24T15:12:29.195Z,97920.56
2022-11-24T15:15:04.146Z,97924.50
2022-11-24T15:17:32.673Z,97917.44
2022-11-24T15:20:09.865Z,97922.16
2022-11-24T15:22:41.322Z,97924.56
2022-11-24T15:25:35.314Z,97918.22
2022-11-24T15:28:02.681Z,97915.34
2022-11-24T15:30:30.978Z,97924.56
2022-11-24T15:33:00.073Z,97924.81
2022-11-24T15:35:31.674Z,97925.38
2022-11-24T15:37:59.602Z,97931.94
2022-11-24T15:40:26.946Z,97926.44
2022-11-24T15:42:57.330Z,97926.16
2022-11-24T15:45:27.721Z,97920.09
2022-11-24T15:47:55.470Z,97928.25
2022-11-24T15:50:23.174Z,97934.09
2022-11-24T15:52:50.877Z,97930.38
2022-11-24T15:55:22.651Z,97935.13
2022-11-24T15:57:50.155Z,97929.06
2022-11-24T16:00:23.391Z,97938.81
2022-11-24T16:02:51.141Z,97936.19
2022-11-24T16:05:18.777Z,97938.03
2022-11-24T16:07:46.194Z,97934.09
2022-11-24T16:10:24.081Z,97947.25
2022-11-24T16:12:51.603Z,97955.16
2022-11-24T16:15:19.087Z,97953.06
2022-11-24T16:17:47.046Z,97958.59
2022-11-24T16:20:15.068Z,97955.69
2022-11-24T16:22:44.127Z,97961.75
2022-11-24T16:25:12.094Z,97952.25
2022-11-24T16:27:40.671Z,97961.22
2022-11-24T16:30:11.412Z,97948.53
2022-11-24T16:32:38.748Z,97948.25
2022-11-24T16:35:06.882Z,97950.91
2022-11-24T16:37:34.550Z,97942.75
2022-11-24T16:40:02.922Z,97953.53
2022-11-24T16:42:31.695Z,97963.56
2022-11-24T16:44:59.148Z,97958.00
2022-11-24T16:47:26.735Z,97949.81
2022-11-24T16:49:54.183Z,97964.06
2022-11-24T16:52:21.796Z,97969.88
2022-11-24T16:54:49.242Z,97967.47
2022-11-24T16:57:16.920Z,97970.41
2022-11-24T16:59:46.180Z,97978.59
2022-11-24T17:02:14.157Z,97976.19
2022-11-24T17:04:41.773Z,97982.50
2022-11-24T17:07:09.297Z,97982.50
2022-11-24T17:09:40.630Z,97982.78
2022-11-24T17:12:08.439Z,97980.66
2022-11-24T17:14:36.463Z,97989.88
2022-11-24T17:17:04.608Z,97984.59
2022-11-24T17:19:32.183Z,97991.47
2022-11-24T17:21:59.606Z,97997.00
2022-11-24T17:24:27.243Z,97996.44
2022-11-24T17:26:55.374Z,97995.94
2022-11-24T17:29:22.896Z,97994.06
2022-11-24T17:31:50.575Z,97999.88
2022-11-24T17:34:18.356Z,97997.50
2022-11-24T17:36:46.333Z,97999.34
2022-11-24T17:39:13.888Z,98010.69
2022-11-24T17:41:41.626Z,97998.53
2022-11-24T17:44:10.845Z,98005.69
2022-11-24T17:46:39.222Z,98001.72
2022-11-24T17:49:13.353Z,98014.66
2022-11-24T17:51:40.995Z,98019.94
2022-11-24T17:54:44.814Z,98022.84
2022-11-24T17:56:56.125Z,98015.47
2022-11-24T17:59:23.619Z,98018.34
2022-11-24T18:01:51.161Z,98018.34
2022-11-24T18:04:18.678Z,98021.78
2022-11-24T18:06:46.455Z,98020.47
2022-11-24T18:09:13.902Z,98023.63
2022-11-24T18:11:41.397Z,98025.22
2022-11-24T18:14:10.400Z,98032.09
2022-11-24T18:16:37.956Z,98035.00
2022-11-24T18:19:10.999Z,98042.66
2022-11-24T18:21:44.883Z,98046.34
2022-11-24T18:24:13.464Z,98041.06
2022-11-24T18:26:42.484Z,98042.09
2022-11-24T18:29:11.615Z,98036.56
2022-11-24T18:31:40.670Z,98036.00
2022-11-24T18:34:08.435Z,98046.06
2022-11-24T18:36:36.433Z,98037.88
2022-11-24T18:39:06.314Z,98050.00
2022-11-24T18:41:34.313Z,98059.78
2022-11-24T18:44:08.318Z,98056.34
2022-11-24T18:46:36.937Z,98053.72
2022-11-24T18:49:04.626Z,98058.47
2022-11-24T18:51:32.008Z,98057.41
2022-11-24T18:53:59.565Z,98055.81
2022-11-24T18:56:27.201Z,98059.28
2022-11-24T18:58:56.996Z,98060.84
2022-11-24T19:01:27.654Z,98065.06
2022-11-24T19:04:00.823Z,98069.53
2022-11-24T19:06:34.312Z,98080.09
2022-11-24T19:09:07.436Z,98075.38
2022-11-24T19:11:37.671Z,98071.66
2022-11-24T19:14:06.989Z,98074.31
2022-11-24T19:16:35.429Z,98078.81
2022-11-24T19:19:03.227Z,98083.56
2022-11-24T19:21:33.053Z,98091.75
2022-11-24T19:24:05.003Z,98093.59
2022-11-24T19:26:35.311Z,98093.59
2022-11-24T19:29:03.549Z,98095.94
2022-11-24T19:31:31.165Z,98100.44
2022-11-24T19:34:00.761Z,98106.78
2022-11-24T19:36:28.144Z,98113.16
2022-11-24T19:38:56.943Z,98078.03
2022-11-24T19:41:27.579Z,98105.75
2022-11-24T19:43:55.112Z,98102.31
2022-11-24T19:46:26.492Z,98102.31
2022-11-24T19:48:56.381Z,98104.69
2022-11-24T19:51:26.417Z,98110.75
2022-11-24T19:53:54.372Z,98114.19
2022-11-24T19:56:24.579Z,98113.91
2022-11-24T19:58:53.554Z,98113.91
2022-11-24T20:01:24.970Z,98118.91
2022-11-24T20:04:03.802Z,98125.25
2022-11-24T20:06:35.211Z,98108.09
2022-11-24T20:09:04.112Z,98123.16
2022-11-24T20:11:31.862Z,98120.78
2022-11-24T20:13:59.480Z,98132.44
2022-11-24T20:16:30.148Z,98132.16
2022-11-24T20:19:00.518Z,98136.63
2022-11-24T20:21:31.536Z,98140.88
2022-11-24T20:24:06.658Z,98135.84
2022-11-24T20:26:39.735Z,98147.97
2022-11-24T20:29:09.881Z,98139.81
2022-11-24T20:31:40.869Z,98154.34
2022-11-24T20:34:08.960Z,98152.75
2022-11-24T20:36:38.367Z,98136.66
2022-11-24T20:39:09.733Z,98154.06
2022-11-24T20:41:39.204Z,98163.06
2022-11-24T20:44:10.878Z,98156.72
2022-11-24T20:46:40.431Z,98163.34
2022-11-24T20:49:09.142Z,98169.69
2022-11-24T20:51:40.045Z,98184.19
2022-11-24T20:54:08.680Z,98179.72
2022-11-24T20:56:40.060Z,98178.94
2022-11-24T20:59:08.767Z,98183.94
2022-11-24T21:01:38.929Z,98186.03
2022-11-24T21:04:08.855Z,98185.81
2022-11-24T21:06:37.275Z,98195.56
2022-11-24T21:09:05.985Z,98207.47
2022-11-24T21:11:33.341Z,98203.22
2022-11-24T21:14:02.405Z,98198.22
2022-11-24T21:16:32.370Z,98190.28
2022-11-24T21:19:06.280Z,98204.00
2022-11-24T21:21:34.733Z,98207.19
2022-11-24T21:24:23.395Z,98207.44
2022-11-24T21:26:52.972Z,98211.13
2022-11-24T21:29:23.706Z,98210.88
2022-11-24T21:31:51.498Z,98212.72
2022-11-24T21:34:19.701Z,98221.69
2022-11-24T21:36:47.462Z,98220.13
2022-11-24T21:39:15.973Z,98202.16
2022-11-24T21:41:44.083Z,98218.00
2022-11-24T21:44:13.185Z,98222.47
2022-11-24T21:46:46.076Z,98218.78
2022-11-24T21:49:17.058Z,98226.19
2022-11-24T21:51:44.482Z,98225.63
2022-11-24T21:54:11.812Z,98234.09
2022-11-24T21:56:39.172Z,98241.72
2022-11-24T21:59:06.509Z,98239.09
2022-11-24T22:01:34.099Z,98244.63
2022-11-24T22:04:01.580Z,98251.50
2022-11-24T22:06:29.013Z,98253.59
2022-11-24T22:08:56.544Z,98248.03
2022-11-24T22:11:25.661Z,98255.97
2022-11-24T22:13:53.453Z,98263.88
2022-11-24T22:16:23.418Z,98270.22
2022-11-24T22:18:51.639Z,98268.09
2022-11-24T22:21:25.792Z,98271.78
2022-11-24T22:23:53.562Z,98278.38
2022-11-24T22:26:23.052Z,98272.03
2022-11-24T22:28:51.120Z,98283.38
2022-11-24T22:31:21.238Z,98285.22
2022-11-24T22:33:49.274Z,98283.91
2022-11-24T22:36:18.654Z,98296.03
2022-11-24T22:38:46.065Z,98296.53
2022-11-24T22:41:15.582Z,98300.25
2022-11-24T22:43:44.275Z,98307.59
2022-11-24T22:46:22.831Z,98313.16
2022-11-24T22:49:09.335Z,98320.25
2022-11-24T22:51:39.326Z,98323.94
2022-11-24T22:54:25.344Z,98337.09
2022-11-24T22:56:52.745Z,98338.13
2022-11-24T22:59:20.173Z,98340.22
2022-11-24T23:02:06.339Z,98344.41
2022-11-24T23:04:34.187Z,98343.03
2022-11-24T23:07:01.736Z,98344.13
2022-11-24T23:09:29.741Z,98347.78
2022-11-24T23:11:57.116Z,98354.66
2022-11-24T23:14:24.495Z,98349.09
2022-11-24T23:16:53.516Z,98360.41
2022-11-24T23:19:20.979Z,98358.59
2022-11-24T23:21:48.329Z,98370.19
2022-11-24T23:24:15.747Z,98371.72
2022-11-24T23:27:01.777Z,98369.59
2022-11-24T23:29:47.687Z,98380.91
2022-11-24T23:32:15.129Z,98388.78
2022-11-24T23:35:01.233Z,98394.81
2022-11-24T23:37:52.111Z,98381.84
2022-11-24T23:40:16.326Z,98389.16
2022-11-24T23:42:47.398Z,98395.16
2022-11-24T23:45:15.498Z,98394.31
2022-11-24T23:47:43.061Z,98396.69
2022-11-24T23:50:10.652Z,98402.44
2022-11-24T23:52:38.048Z,98408.16
2022-11-24T23:55:06.015Z,98417.28
2022-11-24T23:57:33.465Z,98410.19
